sensor_id;sensor_type;location;lat;lon;timestamp;pressure;altitude;pressure_sealevel;temperature;humidity
48553;BME280;34335;51.566;6.994;2023-02-22T00:01:27;100989.84;;;6.52;100.00
48553;BME280;34335;51.566;6.994;2023-02-22T00:04:00;100994.06;;;6.47;100.00
48553;BME280;34335;51.566;6.994;2023-02-22T00:06:25;100993.25;;;6.48;100.00
48553;BME280;34335;51.566;6.994;2023-02-22T00:08:51;100990.84;;;6.59;100.00
48553;BME280;34335;51.566;6.994;2023-02-22T00:11:16;100986.34;;;6.50;100.00
48553;BME280;34335;51.566;6.994;2023-02-22T00:13:42;100973.50;;;6.53;100.00
48553;BME280;34335;51.566;6.994;2023-02-22T00:16:12;100971.84;;;6.55;100.00
48553;BME280;34335;51.566;6.994;2023-02-22T00:18:37;100964.19;;;6.62;100.00
48553;BME280;34335;51.566;6.994;2023-02-22T00:21:03;100960.69;;;6.58;100.00
48553;BME280;34335;51.566;6.994;2023-02-22T00:23:30;100958.09;;;6.58;100.00
48553;BME280;34335;51.566;6.994;2023-02-22T00:25:57;100971.03;;;6.60;100.00
48553;BME280;34335;51.566;6.994;2023-02-22T00:28:22;100972.75;;;6.58;100.00
48553;BME280;34335;51.566;6.994;2023-02-22T00:30:51;100970.13;;;6.56;100.00
48553;BME280;34335;51.566;6.994;2023-02-22T00:33:17;100974.50;;;6.59;100.00
48553;BME280;34335;51.566;6.994;2023-02-22T00:35:43;100972.56;;;6.48;100.00
48553;BME280;34335;51.566;6.994;2023-02-22T00:38:14;100970.66;;;6.41;100.00
48553;BME280;34335;51.566;6.994;2023-02-22T00:40:39;100971.47;;;6.37;100.00
48553;BME280;34335;51.566;6.994;2023-02-22T00:43:05;100968.81;;;6.34;100.00
48553;BME280;34335;51.566;6.994;2023-02-22T00:45:32;100959.28;;;6.30;100.00
48553;BME280;34335;51.566;6.994;2023-02-22T00:47:58;100960.22;;;6.35;100.00
48553;BME280;34335;51.566;6.994;2023-02-22T00:50:25;100964.34;;;6.25;100.00
48553;BME280;34335;51.566;6.994;2023-02-22T00:52:52;100964.13;;;6.16;100.00
48553;BME280;34335;51.566;6.994;2023-02-22T00:55:20;100953.69;;;6.11;100.00
48553;BME280;34335;51.566;6.994;2023-02-22T00:57:46;100955.41;;;6.11;100.00
48553;BME280;34335;51.566;6.994;2023-02-22T01:00:19;100954.47;;;6.07;100.00
48553;BME280;34335;51.566;6.994;2023-02-22T01:02:45;100948.31;;;6.00;100.00
48553;BME280;34335;51.566;6.994;2023-02-22T01:05:15;100942.94;;;5.92;100.00
48553;BME280;34335;51.566;6.994;2023-02-22T01:07:41;100943.66;;;5.87;100.00
48553;BME280;34335;51.566;6.994;2023-02-22T01:10:07;100940.09;;;5.80;100.00
48553;BME280;34335;51.566;6.994;2023-02-22T01:12:34;100939.16;;;5.76;100.00
48553;BME280;34335;51.566;6.994;2023-02-22T01:15:00;100940.03;;;5.77;100.00
48553;BME280;34335;51.566;6.994;2023-02-22T01:17:28;100942.50;;;5.72;100.00
48553;BME280;34335;51.566;6.994;2023-02-22T01:19:53;100939.00;;;5.70;100.00
48553;BME280;34335;51.566;6.994;2023-02-22T01:22:19;100935.47;;;5.65;100.00
48553;BME280;34335;51.566;6.994;2023-02-22T01:24:47;100934.44;;;5.58;100.00
48553;BME280;34335;51.566;6.994;2023-02-22T01:27:13;100938.56;;;5.50;100.00
48553;BME280;34335;51.566;6.994;2023-02-22T01:29:38;100939.81;;;5.31;100.00
48553;BME280;34335;51.566;6.994;2023-02-22T01:32:04;100936.25;;;5.26;100.00
48553;BME280;34335;51.566;6.994;2023-02-22T01:34:30;100939.78;;;5.29;100.00
48553;BME280;34335;51.566;6.994;2023-02-22T01:36:57;100933.69;;;5.26;100.00
48553;BME280;34335;51.566;6.994;2023-02-22T01:39:22;100928.53;;;5.26;100.00
48553;BME280;34335;51.566;6.994;2023-02-22T01:41:48;100928.19;;;5.12;100.00
48553;BME280;34335;51.566;6.994;2023-02-22T01:46:46;100925.25;;;4.98;100.00
48553;BME280;34335;51.566;6.994;2023-02-22T01:49:12;100922.91;;;5.07;100.00
48553;BME280;34335;51.566;6.994;2023-02-22T01:51:43;100920.22;;;5.03;100.00
48553;BME280;34335;51.566;6.994;2023-02-22T01:54:15;100920.72;;;4.89;100.00
48553;BME280;34335;51.566;6.994;2023-02-22T01:56:49;100914.53;;;5.16;100.00
48553;BME280;34335;51.566;6.994;2023-02-22T01:59:17;100918.16;;;4.89;100.00
48553;BME280;34335;51.566;6.994;2023-02-22T02:01:43;100918.16;;;4.89;100.00
48553;BME280;34335;51.566;6.994;2023-02-22T02:04:16;100920.59;;;4.83;100.00
48553;BME280;34335;51.566;6.994;2023-02-22T02:06:44;100919.75;;;4.84;100.00
48553;BME280;34335;51.566;6.994;2023-02-22T02:12:00;100916.34;;;4.85;100.00
48553;BME280;34335;51.566;6.994;2023-02-22T02:14:27;100913.47;;;5.08;100.00
48553;BME280;34335;51.566;6.994;2023-02-22T02:16:56;100905.25;;;4.88;100.00
48553;BME280;34335;51.566;6.994;2023-02-22T02:28:26;100874.09;;;4.78;100.00
48553;BME280;34335;51.566;6.994;2023-02-22T02:34:03;100873.38;;;4.84;100.00
48553;BME280;34335;51.566;6.994;2023-02-22T02:37:31;100869.84;;;4.80;100.00
48553;BME280;34335;51.566;6.994;2023-02-22T02:42:14;100872.53;;;4.85;100.00
48553;BME280;34335;51.566;6.994;2023-02-22T02:44:48;100871.03;;;4.93;100.00
48553;BME280;34335;51.566;6.994;2023-02-22T02:47:19;100865.78;;;4.90;100.00
48553;BME280;34335;51.566;6.994;2023-02-22T02:49:50;100865.56;;;4.81;100.00
48553;BME280;34335;51.566;6.994;2023-02-22T02:52:20;100861.56;;;4.94;100.00
48553;BME280;34335;51.566;6.994;2023-02-22T02:54:48;100862.94;;;4.79;100.00
48553;BME280;34335;51.566;6.994;2023-02-22T02:57:15;100856.16;;;4.83;100.00
48553;BME280;34335;51.566;6.994;2023-02-22T02:59:40;100856.97;;;4.80;100.00
48553;BME280;34335;51.566;6.994;2023-02-22T03:10:23;100841.84;;;4.94;100.00
48553;BME280;34335;51.566;6.994;2023-02-22T03:19:10;100830.03;;;5.04;100.00
48553;BME280;34335;51.566;6.994;2023-02-22T03:21:54;100816.19;;;5.01;100.00
48553;BME280;34335;51.566;6.994;2023-02-22T03:24:30;100812.50;;;4.89;100.00
48553;BME280;34335;51.566;6.994;2023-02-22T03:27:05;100816.19;;;4.99;100.00
48553;BME280;34335;51.566;6.994;2023-02-22T03:29:37;100817.16;;;5.06;100.00
48553;BME280;34335;51.566;6.994;2023-02-22T03:32:07;100818.88;;;5.04;100.00
48553;BME280;34335;51.566;6.994;2023-02-22T03:34:37;100817.03;;;4.99;100.00
48553;BME280;34335;51.566;6.994;2023-02-22T03:37:23;100818.06;;;5.06;100.00
48553;BME280;34335;51.566;6.994;2023-02-22T03:39:51;100812.69;;;4.97;100.00
48553;BME280;34335;51.566;6.994;2023-02-22T03:42:25;100816.13;;;4.97;100.00
48553;BME280;34335;51.566;6.994;2023-02-22T03:44:55;100810.13;;;4.98;100.00
48553;BME280;34335;51.566;6.994;2023-02-22T03:47:31;100812.47;;;4.88;100.00
48553;BME280;34335;51.566;6.994;2023-02-22T03:50:21;100810.09;;;4.97;100.00
48553;BME280;34335;51.566;6.994;2023-02-22T03:52:50;100812.56;;;4.92;100.00
48553;BME280;34335;51.566;6.994;2023-02-22T03:55:16;100801.66;;;5.03;100.00
48553;BME280;34335;51.566;6.994;2023-02-22T03:57:50;100807.03;;;5.13;100.00
48553;BME280;34335;51.566;6.994;2023-02-22T04:00:23;100815.78;;;5.19;100.00
48553;BME280;34335;51.566;6.994;2023-02-22T04:02:49;100812.56;;;5.29;100.00
48553;BME280;34335;51.566;6.994;2023-02-22T04:05:14;100810.44;;;5.11;100.00
48553;BME280;34335;51.566;6.994;2023-02-22T04:07:40;100806.31;;;5.19;100.00
48553;BME280;34335;51.566;6.994;2023-02-22T04:10:05;100815.09;;;5.27;100.00
48553;BME280;34335;51.566;6.994;2023-02-22T04:12:33;100809.84;;;5.24;100.00
48553;BME280;34335;51.566;6.994;2023-02-22T04:14:59;100815.78;;;5.19;100.00
48553;BME280;34335;51.566;6.994;2023-02-22T04:17:24;100824.97;;;5.09;100.00
48553;BME280;34335;51.566;6.994;2023-02-22T04:19:49;100819.91;;;5.12;100.00
48553;BME280;34335;51.566;6.994;2023-02-22T04:22:15;100820.84;;;5.15;100.00
48553;BME280;34335;51.566;6.994;2023-02-22T04:24:41;100821.06;;;5.26;100.00
48553;BME280;34335;51.566;6.994;2023-02-22T04:27:06;100822.28;;;5.03;100.00
48553;BME280;34335;51.566;6.994;2023-02-22T04:29:31;100826.94;;;4.82;100.00
48553;BME280;34335;51.566;6.994;2023-02-22T04:31:57;100824.22;;;4.78;100.00
48553;BME280;34335;51.566;6.994;2023-02-22T04:34:22;100824.28;;;4.79;100.00
48553;BME280;34335;51.566;6.994;2023-02-22T04:36:47;100817.09;;;4.67;100.00
48553;BME280;34335;51.566;6.994;2023-02-22T04:39:13;100819.22;;;4.49;100.00
48553;BME280;34335;51.566;6.994;2023-02-22T04:41:38;100816.97;;;4.61;100.00
48553;BME280;34335;51.566;6.994;2023-02-22T04:44:03;100811.69;;;4.57;100.00
48553;BME280;34335;51.566;6.994;2023-02-22T04:46:29;100802.25;;;4.57;100.00
48553;BME280;34335;51.566;6.994;2023-02-22T04:48:56;100807.34;;;4.54;100.00
48553;BME280;34335;51.566;6.994;2023-02-22T04:51:22;100807.72;;;4.70;100.00
48553;BME280;34335;51.566;6.994;2023-02-22T04:53:47;100802.38;;;4.62;100.00
48553;BME280;34335;51.566;6.994;2023-02-22T04:56:12;100806.03;;;4.70;100.00
48553;BME280;34335;51.566;6.994;2023-02-22T04:58:38;100803.59;;;4.76;100.00
48553;BME280;34335;51.566;6.994;2023-02-22T05:01:03;100803.94;;;4.92;100.00
48553;BME280;34335;51.566;6.994;2023-02-22T05:03:28;100804.72;;;4.88;100.00
48553;BME280;34335;51.566;6.994;2023-02-22T05:05:54;100797.81;;;4.85;100.00
48553;BME280;34335;51.566;6.994;2023-02-22T05:08:19;100787.28;;;4.76;100.00
48553;BME280;34335;51.566;6.994;2023-02-22T05:10:44;100780.53;;;4.81;100.00
48553;BME280;34335;51.566;6.994;2023-02-22T05:13:09;100783.09;;;4.81;100.00
48553;BME280;34335;51.566;6.994;2023-02-22T05:15:35;100785.66;;;4.81;100.00
48553;BME280;34335;51.566;6.994;2023-02-22T05:18:00;100777.53;;;5.01;100.00
48553;BME280;34335;51.566;6.994;2023-02-22T05:20:33;100770.53;;;4.95;100.00
48553;BME280;34335;51.566;6.994;2023-02-22T05:23:00;100779.13;;;4.95;100.00
48553;BME280;34335;51.566;6.994;2023-02-22T05:25:26;100772.38;;;5.01;100.00
48553;BME280;34335;51.566;6.994;2023-02-22T05:27:53;100768.88;;;4.98;100.00
48553;BME280;34335;51.566;6.994;2023-02-22T05:30:22;100768.06;;;4.99;100.00
48553;BME280;34335;51.566;6.994;2023-02-22T05:32:51;100765.59;;;5.04;100.00
48553;BME280;34335;51.566;6.994;2023-02-22T05:35:18;100773.09;;;4.93;100.00
48553;BME280;34335;51.566;6.994;2023-02-22T05:37:43;100765.47;;;4.99;100.00
48553;BME280;34335;51.566;6.994;2023-02-22T05:40:09;100770.56;;;4.96;100.00
48553;BME280;34335;51.566;6.994;2023-02-22T05:42:34;100768.97;;;5.02;100.00
48553;BME280;34335;51.566;6.994;2023-02-22T05:45:00;100770.94;;;5.13;100.00
48553;BME280;34335;51.566;6.994;2023-02-22T05:47:25;100769.38;;;5.20;100.00
48553;BME280;34335;51.566;6.994;2023-02-22T05:49:51;100763.31;;;5.18;100.00
48553;BME280;34335;51.566;6.994;2023-02-22T05:52:16;100758.19;;;5.20;100.00
48553;BME280;34335;51.566;6.994;2023-02-22T05:54:41;100757.41;;;5.22;100.00
48553;BME280;34335;51.566;6.994;2023-02-22T05:57:07;100750.72;;;5.32;100.00
48553;BME280;34335;51.566;6.994;2023-02-22T05:59:32;100748.25;;;5.37;100.00
48553;BME280;34335;51.566;6.994;2023-02-22T06:01:57;100743.88;;;5.33;100.00
48553;BME280;34335;51.566;6.994;2023-02-22T06:04:23;100748.94;;;5.29;100.00
48553;BME280;34335;51.566;6.994;2023-02-22T06:06:48;100746.19;;;5.22;100.00
48553;BME280;34335;51.566;6.994;2023-02-22T06:09:13;100752.88;;;5.12;100.00
48553;BME280;34335;51.566;6.994;2023-02-22T06:11:39;100757.16;;;5.11;100.00
48553;BME280;34335;51.566;6.994;2023-02-22T06:14:04;100752.09;;;5.16;100.00
48553;BME280;34335;51.566;6.994;2023-02-22T06:16:29;100757.94;;;5.07;100.00
48553;BME280;34335;51.566;6.994;2023-02-22T06:18:56;100752.91;;;5.15;100.00
48553;BME280;34335;51.566;6.994;2023-02-22T06:21:22;100754.53;;;5.08;100.00
48553;BME280;34335;51.566;6.994;2023-02-22T06:23:47;100752.25;;;4.84;100.00
48553;BME280;34335;51.566;6.994;2023-02-22T06:26:17;100752.28;;;4.86;100.00
48553;BME280;34335;51.566;6.994;2023-02-22T06:28:44;100749.72;;;4.87;100.00
48553;BME280;34335;51.566;6.994;2023-02-22T06:31:10;100753.31;;;4.94;100.00
48553;BME280;34335;51.566;6.994;2023-02-22T06:33:35;100755.78;;;4.89;100.00
48553;BME280;34335;51.566;6.994;2023-02-22T06:36:00;100751.84;;;4.67;100.00
48553;BME280;34335;51.566;6.994;2023-02-22T06:38:26;100752.88;;;4.74;100.00
48553;BME280;34335;51.566;6.994;2023-02-22T06:40:52;100757.63;;;4.58;100.00
48553;BME280;34335;51.566;6.994;2023-02-22T06:43:20;100751.81;;;4.65;100.00
48553;BME280;34335;51.566;6.994;2023-02-22T06:45:45;100757.63;;;4.58;100.00
48553;BME280;34335;51.566;6.994;2023-02-22T06:48:10;100758.63;;;4.63;100.00
48553;BME280;34335;51.566;6.994;2023-02-22T06:50:36;100751.00;;;4.68;100.00
48553;BME280;34335;51.566;6.994;2023-02-22T06:53:01;100746.00;;;4.74;100.00
48553;BME280;34335;51.566;6.994;2023-02-22T06:55:29;100752.09;;;4.78;100.00
48553;BME280;34335;51.566;6.994;2023-02-22T06:57:55;100744.53;;;4.84;100.00
48553;BME280;34335;51.566;6.994;2023-02-22T07:00:22;100746.00;;;4.74;100.00
48553;BME280;34335;51.566;6.994;2023-02-22T07:02:50;100745.97;;;4.73;100.00
48553;BME280;34335;51.566;6.994;2023-02-22T07:05:20;100742.00;;;4.87;100.00
48553;BME280;34335;51.566;6.994;2023-02-22T07:07:47;100747.13;;;4.86;100.00
48553;BME280;34335;51.566;6.994;2023-02-22T07:10:23;100745.59;;;4.94;100.00
48553;BME280;34335;51.566;6.994;2023-02-22T07:12:49;100742.16;;;4.93;100.00
48553;BME280;34335;51.566;6.994;2023-02-22T07:15:17;100743.75;;;4.88;100.00
48553;BME280;34335;51.566;6.994;2023-02-22T07:17:43;100743.94;;;4.97;100.00
48553;BME280;34335;51.566;6.994;2023-02-22T07:20:09;100739.63;;;4.96;100.00
48553;BME280;34335;51.566;6.994;2023-02-22T07:22:36;100738.00;;;5.00;100.00
48553;BME280;34335;51.566;6.994;2023-02-22T07:25:03;100739.78;;;5.03;100.00
48553;BME280;34335;51.566;6.994;2023-02-22T07:27:28;100747.50;;;5.03;100.00
48553;BME280;34335;51.566;6.994;2023-02-22T07:29:54;100740.53;;;4.98;100.00
48553;BME280;34335;51.566;6.994;2023-02-22T07:32:19;100746.38;;;4.90;100.00
48553;BME280;34335;51.566;6.994;2023-02-22T07:34:44;100742.06;;;4.90;100.00
48553;BME280;34335;51.566;6.994;2023-02-22T07:37:09;100745.47;;;4.89;100.00
48553;BME280;34335;51.566;6.994;2023-02-22T07:39:35;100745.66;;;4.97;100.00
48553;BME280;34335;51.566;6.994;2023-02-22T07:42:02;100741.25;;;4.93;100.00
48553;BME280;34335;51.566;6.994;2023-02-22T07:44:27;100743.00;;;4.94;100.00
48553;BME280;34335;51.566;6.994;2023-02-22T07:46:53;100741.34;;;4.96;100.00
48553;BME280;34335;51.566;6.994;2023-02-22T07:49:18;100748.06;;;4.89;100.00
48553;BME280;34335;51.566;6.994;2023-02-22T07:51:43;100736.63;;;4.78;100.00
48553;BME280;34335;51.566;6.994;2023-02-22T07:54:08;100732.59;;;4.89;100.00
48553;BME280;34335;51.566;6.994;2023-02-22T07:56:34;100732.72;;;4.95;100.00
48553;BME280;34335;51.566;6.994;2023-02-22T07:58:59;100726.06;;;5.04;100.00
48553;BME280;34335;51.566;6.994;2023-02-22T08:01:25;100728.69;;;5.07;100.00
48553;BME280;34335;51.566;6.994;2023-02-22T08:03:51;100734.75;;;5.09;100.00
48553;BME280;34335;51.566;6.994;2023-02-22T08:06:16;100725.28;;;5.08;100.00
48553;BME280;34335;51.566;6.994;2023-02-22T08:08:42;100729.69;;;5.13;100.00
48553;BME280;34335;51.566;6.994;2023-02-22T08:11:07;100725.44;;;5.14;100.00
48553;BME280;34335;51.566;6.994;2023-02-22T08:13:33;100718.53;;;5.13;100.00
48553;BME280;34335;51.566;6.994;2023-02-22T08:15:58;100717.78;;;5.19;100.00
48553;BME280;34335;51.566;6.994;2023-02-22T08:18:24;100710.09;;;5.22;100.00
48553;BME280;34335;51.566;6.994;2023-02-22T08:20:50;100717.19;;;5.32;100.00
48553;BME280;34335;51.566;6.994;2023-02-22T08:23:17;100720.41;;;5.22;100.00
48553;BME280;34335;51.566;6.994;2023-02-22T08:25:42;100716.97;;;5.21;100.00
48553;BME280;34335;51.566;6.994;2023-02-22T08:28:10;100716.06;;;5.19;100.00
48553;BME280;34335;51.566;6.994;2023-02-22T08:30:38;100714.44;;;5.24;100.00
48553;BME280;34335;51.566;6.994;2023-02-22T08:33:04;100709.56;;;5.37;100.00
48553;BME280;34335;51.566;6.994;2023-02-22T08:35:31;100713.91;;;5.39;100.00
48553;BME280;34335;51.566;6.994;2023-02-22T08:37:59;100708.78;;;5.41;100.00
48553;BME280;34335;51.566;6.994;2023-02-22T08:40:27;100717.44;;;5.43;100.00
48553;BME280;34335;51.566;6.994;2023-02-22T08:42:54;100708.03;;;5.46;100.00
48553;BME280;34335;51.566;6.994;2023-02-22T08:45:19;100701.44;;;5.61;100.00
48553;BME280;34335;51.566;6.994;2023-02-22T08:47:45;100702.34;;;5.65;100.00
48553;BME280;34335;51.566;6.994;2023-02-22T08:50:19;100705.16;;;5.75;100.00
48553;BME280;34335;51.566;6.994;2023-02-22T08:52:45;100698.19;;;5.73;100.00
48553;BME280;34335;51.566;6.994;2023-02-22T08:55:11;100691.44;;;5.80;100.00
48553;BME280;34335;51.566;6.994;2023-02-22T08:57:36;100695.69;;;5.76;100.00
48553;BME280;34335;51.566;6.994;2023-02-22T09:00:03;100695.03;;;5.86;100.00
48553;BME280;34335;51.566;6.994;2023-02-22T09:02:29;100687.50;;;5.99;100.00
48553;BME280;34335;51.566;6.994;2023-02-22T09:04:54;100691.06;;;6.04;100.00
48553;BME280;34335;51.566;6.994;2023-02-22T09:07:20;100700.34;;;5.94;100.00
48553;BME280;34335;51.566;6.994;2023-02-22T09:09:45;100695.03;;;5.88;100.00
48553;BME280;34335;51.566;6.994;2023-02-22T09:12:10;100694.25;;;5.90;100.00
48553;BME280;34335;51.566;6.994;2023-02-22T09:14:36;100693.75;;;6.10;100.00
48553;BME280;34335;51.566;6.994;2023-02-22T09:17:02;100692.09;;;6.14;100.00
48553;BME280;34335;51.566;6.994;2023-02-22T09:19:27;100679.97;;;6.10;100.00
48553;BME280;34335;51.566;6.994;2023-02-22T09:21:53;100684.44;;;6.18;100.00
48553;BME280;34335;51.566;6.994;2023-02-22T09:24:19;100681.81;;;6.17;100.00
48553;BME280;34335;51.566;6.994;2023-02-22T09:26:48;100675.84;;;6.21;100.00
48553;BME280;34335;51.566;6.994;2023-02-22T09:29:19;100688.91;;;6.30;100.00
48553;BME280;34335;51.566;6.994;2023-02-22T09:31:47;100685.63;;;6.39;100.00
48553;BME280;34335;51.566;6.994;2023-02-22T09:34:14;100679.84;;;6.55;100.00
48553;BME280;34335;51.566;6.994;2023-02-22T09:36:41;100687.03;;;6.78;100.00
48553;BME280;34335;51.566;6.994;2023-02-22T09:39:06;100679.13;;;6.66;100.00
48553;BME280;34335;51.566;6.994;2023-02-22T09:41:51;100676.56;;;6.66;100.00
48553;BME280;34335;51.566;6.994;2023-02-22T09:44:34;100669.66;;;6.65;100.00
48553;BME280;34335;51.566;6.994;2023-02-22T09:47:02;100676.63;;;6.72;100.00
48553;BME280;34335;51.566;6.994;2023-02-22T09:49:33;100672.59;;;6.91;100.00
48553;BME280;34335;51.566;6.994;2023-02-22T09:52:21;100672.56;;;6.90;100.00
48553;BME280;34335;51.566;6.994;2023-02-22T09:55:04;100669.28;;;7.01;100.00
48553;BME280;34335;51.566;6.994;2023-02-22T09:57:34;100669.06;;;6.84;100.00
48553;BME280;34335;51.566;6.994;2023-02-22T10:00:17;100676.22;;;7.04;100.00
48553;BME280;34335;51.566;6.994;2023-02-22T10:05:32;100668.59;;;7.15;100.00
48553;BME280;34335;51.566;6.994;2023-02-22T10:08:00;100667.22;;;7.46;100.00
48553;BME280;34335;51.566;6.994;2023-02-22T10:10:33;100671.75;;;7.66;100.00
48553;BME280;34335;51.566;6.994;2023-02-22T10:15:53;100662.53;;;7.93;100.00
48553;BME280;34335;51.566;6.994;2023-02-22T10:21:26;100656.59;;;8.08;100.00
48553;BME280;34335;51.566;6.994;2023-02-22T10:26:51;100650.06;;;8.50;100.00
48553;BME280;34335;51.566;6.994;2023-02-22T10:29:46;100644.00;;;8.53;100.00
48553;BME280;34335;51.566;6.994;2023-02-22T10:32:25;100638.97;;;8.73;100.00
48553;BME280;34335;51.566;6.994;2023-02-22T10:34:53;100644.19;;;8.78;100.00
48553;BME280;34335;51.566;6.994;2023-02-22T10:37:26;100640.78;;;8.94;100.00
48553;BME280;34335;51.566;6.994;2023-02-22T10:39:57;100640.81;;;8.97;100.00
48553;BME280;34335;51.566;6.994;2023-02-22T10:42:25;100632.22;;;9.14;100.00
48553;BME280;34335;51.566;6.994;2023-02-22T10:48:16;100632.31;;;9.48;100.00
48553;BME280;34335;51.566;6.994;2023-02-22T10:50:46;100627.16;;;9.51;100.00
48553;BME280;34335;51.566;6.994;2023-02-22T10:53:12;100618.47;;;9.49;100.00
48553;BME280;34335;51.566;6.994;2023-02-22T11:01:20;100604.69;;;10.06;100.00
48553;BME280;34335;51.566;6.994;2023-02-22T11:03:56;100602.06;;;10.31;100.00
48553;BME280;34335;51.566;6.994;2023-02-22T11:06:21;100595.13;;;10.51;100.00
48553;BME280;34335;51.566;6.994;2023-02-22T11:08:47;100598.50;;;10.80;100.00
48553;BME280;34335;51.566;6.994;2023-02-22T11:14:37;100592.38;;;10.95;100.00
48553;BME280;34335;51.566;6.994;2023-02-22T11:17:06;100585.38;;;11.03;100.00
48553;BME280;34335;51.566;6.994;2023-02-22T11:19:33;100585.38;;;11.11;100.00
48553;BME280;34335;51.566;6.994;2023-02-22T11:22:22;100575.59;;;11.47;100.00
48553;BME280;34335;51.566;6.994;2023-02-22T11:24:52;100571.16;;;11.60;100.00
48553;BME280;34335;51.566;6.994;2023-02-22T11:36:35;100562.94;;;12.15;100.00
48553;BME280;34335;51.566;6.994;2023-02-22T11:39:03;100562.13;;;12.07;100.00
48553;BME280;34335;51.566;6.994;2023-02-22T11:41:31;100552.28;;;12.36;100.00
48553;BME280;34335;51.566;6.994;2023-02-22T11:44:24;100556.38;;;12.57;100.00
48553;BME280;34335;51.566;6.994;2023-02-22T11:46:51;100555.91;;;12.97;100.00
48553;BME280;34335;51.566;6.994;2023-02-22T11:49:22;100551.56;;;12.96;100.00
48553;BME280;34335;51.566;6.994;2023-02-22T12:01:05;100541.25;;;14.04;100.00
48553;BME280;34335;51.566;6.994;2023-02-22T12:03:48;100526.28;;;14.12;100.00
48553;BME280;34335;51.566;6.994;2023-02-22T12:06:39;100535.28;;;13.94;100.00
48553;BME280;34335;51.566;6.994;2023-02-22T12:09:21;100537.06;;;13.92;100.00
48553;BME280;34335;51.566;6.994;2023-02-22T12:12:11;100522.91;;;14.06;100.00
48553;BME280;34335;51.566;6.994;2023-02-22T12:20:12;100523.44;;;14.23;100.00
48553;BME280;34335;51.566;6.994;2023-02-22T12:22:51;100512.38;;;14.54;100.00
48553;BME280;34335;51.566;6.994;2023-02-22T12:25:21;100505.31;;;14.58;100.00
48553;BME280;34335;51.566;6.994;2023-02-22T12:27:51;100513.41;;;14.47;100.00
48553;BME280;34335;51.566;6.994;2023-02-22T12:30:22;100500.38;;;14.44;100.00
48553;BME280;34335;51.566;6.994;2023-02-22T12:32:51;100502.56;;;14.65;100.00
48553;BME280;34335;51.566;6.994;2023-02-22T12:35:22;100506.53;;;14.84;100.00
48553;BME280;34335;51.566;6.994;2023-02-22T12:37:55;100501.13;;;15.31;100.00
48553;BME280;34335;51.566;6.994;2023-02-22T12:40:27;100498.56;;;16.00;100.00
48553;BME280;34335;51.566;6.994;2023-02-22T12:43:05;100498.06;;;15.49;100.00
48553;BME280;34335;51.566;6.994;2023-02-22T12:45:42;100499.72;;;15.52;100.00
48553;BME280;34335;51.566;6.994;2023-02-22T12:48:20;100497.78;;;15.24;99.24
48553;BME280;34335;51.566;6.994;2023-02-22T12:50:54;100501.41;;;15.18;100.00
48553;BME280;34335;51.566;6.994;2023-02-22T12:53:31;100505.75;;;15.55;100.00
48553;BME280;34335;51.566;6.994;2023-02-22T12:56:15;100500.84;;;15.43;100.00
48553;BME280;34335;51.566;6.994;2023-02-22T12:58:50;100507.47;;;15.56;91.08
48553;BME280;34335;51.566;6.994;2023-02-22T13:01:19;100498.19;;;15.79;97.13
48553;BME280;34335;51.566;6.994;2023-02-22T13:03:46;100507.72;;;15.47;87.38
48553;BME280;34335;51.566;6.994;2023-02-22T13:07:00;100502.19;;;15.23;78.90
48553;BME280;34335;51.566;6.994;2023-02-22T13:09:44;100506.91;;;15.06;72.57
48553;BME280;34335;51.566;6.994;2023-02-22T13:15:02;100502.91;;;15.29;73.94
48553;BME280;34335;51.566;6.994;2023-02-22T13:17:45;100499.41;;;15.30;79.43
48553;BME280;34335;51.566;6.994;2023-02-22T13:22:53;100484.19;;;16.13;100.00
48553;BME280;34335;51.566;6.994;2023-02-22T13:25:36;100496.00;;;16.28;100.00
48553;BME280;34335;51.566;6.994;2023-02-22T13:28:19;100498.81;;;15.89;73.78
48553;BME280;34335;51.566;6.994;2023-02-22T13:31:48;100501.84;;;15.37;83.49
48553;BME280;34335;51.566;6.994;2023-02-22T13:34:05;100499.03;;;15.07;79.80
48553;BME280;34335;51.566;6.994;2023-02-22T13:39:15;100492.97;;;15.43;79.64
48553;BME280;34335;51.566;6.994;2023-02-22T13:52:53;100495.22;;;15.21;85.72
48553;BME280;34335;51.566;6.994;2023-02-22T13:55:29;100494.56;;;15.49;94.10
48553;BME280;34335;51.566;6.994;2023-02-22T13:58:23;100494.88;;;14.99;63.18
48553;BME280;34335;51.566;6.994;2023-02-22T14:00:50;100490.56;;;14.96;67.41
48553;BME280;34335;51.566;6.994;2023-02-22T14:03:32;100491.81;;;15.53;71.27
48553;BME280;34335;51.566;6.994;2023-02-22T14:06:01;100482.72;;;15.68;77.54
48553;BME280;34335;51.566;6.994;2023-02-22T14:10:54;100484.06;;;15.83;93.36
48553;BME280;34335;51.566;6.994;2023-02-22T14:13:25;100484.38;;;15.72;80.50
48553;BME280;34335;51.566;6.994;2023-02-22T14:18:48;100486.94;;;15.74;74.99
48553;BME280;34335;51.566;6.994;2023-02-22T14:21:23;100481.50;;;15.82;87.98
48553;BME280;34335;51.566;6.994;2023-02-22T14:23:51;100481.25;;;15.93;100.00
48553;BME280;34335;51.566;6.994;2023-02-22T14:28:55;100480.63;;;16.47;84.25
48553;BME280;34335;51.566;6.994;2023-02-22T14:36:19;100477.47;;;16.64;100.00
48553;BME280;34335;51.566;6.994;2023-02-22T14:38:45;100477.09;;;16.17;84.07
48553;BME280;34335;51.566;6.994;2023-02-22T14:41:12;100483.13;;;15.87;84.36
48553;BME280;34335;51.566;6.994;2023-02-22T14:43:39;100490.00;;;15.57;79.29
48553;BME280;34335;51.566;6.994;2023-02-22T14:46:06;100482.28;;;15.15;74.27
48553;BME280;34335;51.566;6.994;2023-02-22T14:48:36;100491.56;;;14.90;78.37
48553;BME280;34335;51.566;6.994;2023-02-22T14:51:16;100492.06;;;14.67;73.86
48553;BME280;34335;51.566;6.994;2023-02-22T14:53:46;100493.41;;;14.43;74.34